Time;durP1;ratioP1;P1;durP2;ratioP2;P2;SDS_P1;SDS_P2;PMS_P1;PMS_P2;Temp;Humidity;BMP_temperature;BMP_pressure;BME280_temperature;BME280_humidity;BME280_pressure;Samples;Min_cycle;Max_cycle;Signal;HPM_P1;HPM_P2
2020/12/10 00:02:08;;;;;;;38.95;20.52;;;3.00;94.00;;;;;;5053125;28;20111;-67
2020/12/10 00:04:34;;;;;;;36.25;19.48;;;3.10;94.10;;;;;;5054527;28;20021;-67
2020/12/10 00:06:59;;;;;;;41.40;20.63;;;3.10;94.20;;;;;;5055691;28;20020;-67
2020/12/10 00:09:25;;;;;;;42.10;22.17;;;3.10;94.20;;;;;;5052794;28;20025;-68
2020/12/10 00:11:50;;;;;;;37.58;21.17;;;3.10;94.20;;;;;;5056372;28;20032;-68
2020/12/10 00:14:16;;;;;;;39.97;21.70;;;3.00;94.20;;;;;;5054830;28;20051;-67
2020/12/10 00:16:46;;;;;;;41.63;21.35;;;3.10;94.20;;;;;;5049612;28;20024;-67
2020/12/10 00:19:12;;;;;;;43.00;22.10;;;3.00;94.20;;;;;;5058005;28;20024;-68
2020/12/10 00:21:37;;;;;;;40.42;20.73;;;3.00;94.30;;;;;;5068050;28;20044;-68
2020/12/10 00:24:03;;;;;;;41.33;22.23;;;3.00;94.30;;;;;;5065895;28;20043;-69
2020/12/10 00:26:29;;;;;;;45.53;22.80;;;3.00;94.30;;;;;;5055098;28;20013;-68
2020/12/10 00:28:54;;;;;;;44.83;22.38;;;3.00;94.40;;;;;;5061268;28;20130;-67
2020/12/10 00:31:20;;;;;;;44.47;22.80;;;3.00;94.50;;;;;;5063543;28;20033;-68
2020/12/10 00:33:45;;;;;;;44.08;21.90;;;3.00;94.50;;;;;;5060956;28;20133;-68
2020/12/10 00:36:14;;;;;;;47.97;22.63;;;3.00;94.60;;;;;;5066851;28;20153;-68
2020/12/10 00:38:40;;;;;;;47.22;23.58;;;3.00;94.70;;;;;;5066073;28;20132;-67
2020/12/10 00:41:06;;;;;;;50.47;23.23;;;3.00;94.80;;;;;;5067134;28;20108;-68
2020/12/10 00:43:31;;;;;;;45.08;23.23;;;3.00;94.80;;;;;;5061711;28;20032;-67
2020/12/10 00:46:04;;;;;;;49.72;23.98;;;3.00;94.80;;;;;;5066317;28;20021;-67
2020/12/10 00:48:30;;;;;;;44.60;22.45;;;3.00;94.80;;;;;;5066009;28;20127;-69
2020/12/10 00:50:56;;;;;;;53.83;24.90;;;3.00;94.90;;;;;;5065500;28;20094;-68
2020/12/10 00:53:21;;;;;;;58.80;25.42;;;3.00;94.90;;;;;;5055852;28;20218;-68
2020/12/10 00:55:47;;;;;;;52.15;24.33;;;3.00;95.00;;;;;;5063802;28;20131;-68
2020/12/10 00:58:13;;;;;;;52.78;24.23;;;3.00;95.10;;;;;;5061103;28;20406;-68
2020/12/10 01:00:38;;;;;;;52.78;24.88;;;3.00;95.10;;;;;;5049124;28;20503;-68
2020/12/10 01:03:04;;;;;;;51.30;24.17;;;3.00;95.10;;;;;;5061268;28;20036;-68
2020/12/10 01:05:30;;;;;;;46.25;24.17;;;3.00;95.20;;;;;;5065158;28;20520;-67
2020/12/10 01:07:55;;;;;;;48.08;23.90;;;3.00;95.20;;;;;;5062447;28;20460;-68
2020/12/10 01:10:21;;;;;;;55.70;24.63;;;3.00;95.20;;;;;;5063715;28;20397;-67
2020/12/10 01:12:46;;;;;;;53.78;25.60;;;3.00;95.20;;;;;;5051238;28;20052;-68
2020/12/10 01:15:12;;;;;;;53.42;22.63;;;3.00;95.20;;;;;;5046880;28;20029;-68
2020/12/10 01:17:41;;;;;;;52.70;23.60;;;3.00;95.30;;;;;;5061635;28;20514;-68
2020/12/10 01:20:09;;;;;;;54.35;24.52;;;3.00;95.30;;;;;;5066315;28;20027;-69
2020/12/10 01:22:35;;;;;;;53.85;25.17;;;3.00;95.20;;;;;;5064003;28;20183;-68
2020/12/10 01:25:01;;;;;;;56.30;25.17;;;3.00;95.40;;;;;;5066064;28;20384;-68
2020/12/10 01:27:27;;;;;;;59.20;25.30;;;3.00;95.30;;;;;;5062621;28;20095;-67
2020/12/10 01:29:52;;;;;;;63.63;26.73;;;3.00;95.40;;;;;;5066584;28;20311;-66
2020/12/10 01:32:20;;;;;;;53.35;24.25;;;3.00;95.40;;;;;;5057959;28;20454;-69
2020/12/10 01:34:46;;;;;;;54.15;24.88;;;3.00;95.40;;;;;;5053734;28;20036;-68
2020/12/10 01:37:11;;;;;;;57.47;26.15;;;3.00;95.40;;;;;;5057983;28;20028;-68
2020/12/10 01:39:38;;;;;;;56.58;24.70;;;3.00;95.40;;;;;;5066084;28;20059;-68
2020/12/10 01:42:04;;;;;;;62.20;26.63;;;3.00;95.40;;;;;;5063212;28;20024;-68
2020/12/10 01:44:29;;;;;;;61.00;25.50;;;3.10;95.40;;;;;;5066042;28;20027;-68
2020/12/10 01:46:55;;;;;;;57.03;24.88;;;3.00;95.50;;;;;;5062276;28;20077;-68
2020/12/10 01:49:20;;;;;;;61.72;26.27;;;3.00;95.70;;;;;;5064338;28;20031;-68
2020/12/10 01:51:46;;;;;;;59.28;24.60;;;3.00;95.80;;;;;;5057384;28;20397;-68
2020/12/10 01:54:12;;;;;;;64.22;26.10;;;3.00;95.80;;;;;;5058465;28;20077;-68
2020/12/10 01:56:37;;;;;;;64.75;25.15;;;3.00;95.80;;;;;;5064513;28;20063;-69
2020/12/10 01:59:04;;;;;;;58.40;26.73;;;3.00;95.90;;;;;;5064388;28;20060;-67
2020/12/10 02:01:31;;;;;;;63.95;26.40;;;3.00;96.10;;;;;;5059376;28;20365;-68
2020/12/10 02:03:57;;;;;;;68.32;27.90;;;3.00;96.10;;;;;;5065956;28;20112;-68
2020/12/10 02:06:23;;;;;;;69.88;27.92;;;3.00;96.30;;;;;;5063171;28;20039;-67
2020/12/10 02:08:48;;;;;;;68.50;27.05;;;3.00;96.30;;;;;;5064334;28;20033;-68
2020/12/10 02:11:14;;;;;;;68.50;27.10;;;3.00;96.40;;;;;;5060584;28;20028;-68
2020/12/10 02:13:40;;;;;;;74.30;27.83;;;3.00;96.50;;;;;;5051506;28;20108;-67
2020/12/10 02:16:07;;;;;;;77.03;27.15;;;3.00;96.40;;;;;;5050930;28;20499;-67
2020/12/10 02:18:33;;;;;;;90.65;27.48;;;3.00;96.70;;;;;;5063376;28;20061;-69
2020/12/10 02:20:59;;;;;;;88.35;27.42;;;2.90;96.70;;;;;;5060378;28;20090;-68
2020/12/10 02:23:25;;;;;;;84.80;28.25;;;3.00;96.80;;;;;;5062189;28;20436;-68
2020/12/10 02:25:51;;;;;;;82.43;27.80;;;3.00;96.90;;;;;;5062946;28;20047;-68
2020/12/10 02:28:18;;;;;;;80.97;28.63;;;2.90;97.00;;;;;;5063171;28;20059;-68
2020/12/10 02:30:46;;;;;;;84.55;27.77;;;3.00;97.00;;;;;;5059825;28;20388;-68
2020/12/10 02:33:13;;;;;;;78.43;26.75;;;3.00;97.00;;;;;;5065058;28;20068;-68
2020/12/10 02:35:41;;;;;;;101.28;29.98;;;3.00;97.00;;;;;;5056702;28;20214;-67
2020/12/10 02:38:09;;;;;;;83.35;28.50;;;3.00;97.00;;;;;;5060264;28;20551;-67
2020/12/10 02:40:45;;;;;;;82.47;28.23;;;3.00;97.10;;;;;;5065172;28;20449;-67
2020/12/10 02:43:12;;;;;;;91.18;28.40;;;3.00;97.10;;;;;;5061996;28;20555;-67
2020/12/10 02:45:40;;;;;;;97.50;31.42;;;3.00;97.10;;;;;;5062496;28;20056;-67
2020/12/10 02:48:06;;;;;;;88.97;28.23;;;3.00;97.20;;;;;;5066705;28;20341;-67
2020/12/10 02:50:32;;;;;;;89.53;29.58;;;3.00;97.20;;;;;;5068246;28;20443;-67
2020/12/10 02:52:58;;;;;;;92.32;29.80;;;3.00;97.30;;;;;;5053430;28;20041;-67
2020/12/10 02:55:24;;;;;;;101.28;29.38;;;3.00;97.30;;;;;;5061231;28;20440;-66
2020/12/10 02:57:49;;;;;;;89.93;27.95;;;3.00;97.40;;;;;;5066262;28;20056;-67
2020/12/10 03:00:15;;;;;;;88.43;28.15;;;3.00;97.30;;;;;;5063465;28;20107;-67
2020/12/10 03:02:41;;;;;;;79.47;27.30;;;3.00;97.40;;;;;;5067543;28;20059;-67
2020/12/10 03:05:07;;;;;;;80.03;28.80;;;3.00;97.40;;;;;;5064463;28;20400;-67
2020/12/10 03:07:33;;;;;;;77.53;26.27;;;3.00;97.30;;;;;;5062357;28;20032;-67
2020/12/10 03:09:59;;;;;;;74.30;28.70;;;3.00;97.30;;;;;;5068445;28;20034;-67
2020/12/10 03:12:25;;;;;;;77.10;27.02;;;3.00;97.30;;;;;;5063261;28;20032;-67
2020/12/10 03:14:50;;;;;;;72.97;27.02;;;3.00;97.30;;;;;;5052378;28;20453;-67
2020/12/10 03:17:16;;;;;;;69.60;26.10;;;3.00;97.30;;;;;;5054967;28;20025;-67
2020/12/10 03:19:42;;;;;;;77.63;27.42;;;3.00;97.30;;;;;;5065609;28;20040;-67
2020/12/10 03:22:12;;;;;;;70.47;27.45;;;3.00;97.30;;;;;;5066143;28;20465;-67
2020/12/10 03:24:38;;;;;;;68.22;27.02;;;3.00;97.20;;;;;;5066893;28;20053;-67
2020/12/10 03:27:03;;;;;;;65.70;26.55;;;2.90;97.20;;;;;;5067825;28;20040;-67
2020/12/10 03:29:29;;;;;;;64.03;25.45;;;2.90;97.10;;;;;;5067215;28;20101;-68
2020/12/10 03:31:54;;;;;;;67.38;26.20;;;2.90;97.10;;;;;;5058581;28;20046;-67
2020/12/10 03:34:21;;;;;;;59.55;25.90;;;2.90;97.10;;;;;;5058808;28;20025;-67
2020/12/10 03:36:49;;;;;;;61.28;25.90;;;2.90;97.10;;;;;;5066612;28;20572;-67
2020/12/10 03:39:15;;;;;;;68.80;26.50;;;2.90;97.00;;;;;;5066503;28;20040;-67
2020/12/10 03:41:44;;;;;;;63.03;27.17;;;2.90;97.00;;;;;;5066413;28;20036;-67
2020/12/10 03:44:11;;;;;;;63.42;26.98;;;2.90;97.00;;;;;;5068139;28;20047;-66
2020/12/10 03:46:37;;;;;;;61.17;25.70;;;2.80;96.90;;;;;;5066904;28;20139;-66
2020/12/10 03:49:02;;;;;;;61.65;26.05;;;2.90;96.90;;;;;;5068080;28;20640;-67
2020/12/10 03:51:28;;;;;;;65.25;27.25;;;2.90;96.90;;;;;;5066038;28;20028;-66
2020/12/10 03:53:54;;;;;;;62.00;25.92;;;2.80;96.90;;;;;;5060046;28;20037;-67
2020/12/10 03:56:19;;;;;;;61.20;26.10;;;2.90;96.90;;;;;;5067109;28;20474;-67
2020/12/10 03:58:45;;;;;;;63.00;27.00;;;2.90;96.90;;;;;;5064177;28;20037;-67
2020/12/10 04:01:10;;;;;;;63.85;27.35;;;2.80;96.90;;;;;;5067272;28;20029;-67
2020/12/10 04:03:36;;;;;;;66.05;27.63;;;2.80;96.80;;;;;;5064613;28;20063;-67
2020/12/10 04:06:01;;;;;;;60.80;27.05;;;2.80;96.90;;;;;;5066162;28;20021;-67
2020/12/10 04:08:27;;;;;;;59.67;26.02;;;2.80;96.90;;;;;;5066705;28;20227;-67
2020/12/10 04:10:53;;;;;;;61.92;27.17;;;2.80;96.90;;;;;;5067584;28;20423;-68
2020/12/10 04:13:18;;;;;;;61.95;26.83;;;2.90;96.90;;;;;;5054672;28;20120;-67
2020/12/10 04:15:44;;;;;;;63.70;26.92;;;2.90;96.90;;;;;;5048005;28;20033;-68
2020/12/10 04:18:09;;;;;;;69.90;27.40;;;2.90;96.90;;;;;;5059946;28;20527;-67
2020/12/10 04:20:35;;;;;;;62.50;27.05;;;2.90;96.90;;;;;;5067314;28;20029;-67
2020/12/10 04:23:00;;;;;;;66.05;26.08;;;2.80;96.90;;;;;;5063935;28;20028;-67
2020/12/10 04:25:26;;;;;;;77.53;29.58;;;2.90;97.00;;;;;;5062429;28;20055;-67
2020/12/10 04:27:51;;;;;;;68.45;27.40;;;2.90;96.90;;;;;;5066157;28;20052;-68
2020/12/10 04:30:21;;;;;;;69.75;26.70;;;2.90;96.90;;;;;;5065395;28;20452;-66
2020/12/10 04:32:47;;;;;;;72.22;28.80;;;2.80;96.90;;;;;;5058643;28;20510;-67
2020/12/10 04:35:13;;;;;;;68.45;28.48;;;2.80;96.90;;;;;;5050690;28;20025;-67
2020/12/10 04:37:38;;;;;;;69.65;28.10;;;2.90;96.90;;;;;;5064877;28;20393;-67
2020/12/10 04:40:04;;;;;;;71.80;29.70;;;2.80;96.90;;;;;;5067604;28;20048;-67
2020/12/10 04:42:30;;;;;;;64.53;27.75;;;2.90;96.90;;;;;;5065735;28;20096;-68
2020/12/10 04:44:56;;;;;;;68.40;28.80;;;2.90;97.00;;;;;;5065091;28;20413;-67
2020/12/10 04:47:23;;;;;;;69.20;27.80;;;2.80;96.90;;;;;;5065574;28;20021;-67
2020/12/10 04:49:51;;;;;;;76.63;30.50;;;2.80;96.90;;;;;;5066375;28;20056;-68
2020/12/10 04:52:18;;;;;;;70.15;29.35;;;2.80;96.90;;;;;;5059501;28;20020;-67
2020/12/10 04:54:44;;;;;;;72.57;29.77;;;2.90;97.00;;;;;;5059900;28;20050;-67
2020/12/10 04:57:11;;;;;;;81.55;30.27;;;2.90;97.00;;;;;;5065062;28;20040;-67
2020/12/10 04:59:37;;;;;;;78.30;30.23;;;2.80;97.10;;;;;;5059285;28;20048;-68
2020/12/10 05:02:11;;;;;;;84.03;31.73;;;2.80;97.00;;;;;;5064613;28;20017;-68
2020/12/10 05:04:40;;;;;;;82.78;30.90;;;2.80;97.10;;;;;;5065980;28;20087;-67
2020/12/10 05:07:06;;;;;;;84.07;32.00;;;2.90;97.10;;;;;;5064296;28;20056;-67
2020/12/10 05:09:33;;;;;;;78.07;31.80;;;2.90;97.10;;;;;;5064167;28;20460;-67
2020/12/10 05:11:59;;;;;;;89.53;32.00;;;2.90;97.20;;;;;;5061472;28;20446;-67
2020/12/10 05:14:24;;;;;;;92.57;34.20;;;2.90;97.20;;;;;;5051326;28;20453;-67
2020/12/10 05:17:10;;;;;;;97.40;34.75;;;2.90;97.10;;;;;;5047258;28;20107;-65
2020/12/10 05:19:35;;;;;;;94.53;33.22;;;2.80;97.20;;;;;;5046415;28;20044;-68
2020/12/10 05:22:06;;;;;;;97.68;32.28;;;2.80;97.20;;;;;;5064672;28;20033;-67
2020/12/10 05:24:32;;;;;;;105.00;32.83;;;2.90;97.30;;;;;;5053376;28;20089;-67
2020/12/10 05:27:19;;;;;;;101.88;32.33;;;2.80;97.20;;;;;;5061871;28;20070;-67
2020/12/10 05:29:44;;;;;;;89.35;31.88;;;2.90;97.30;;;;;;5066153;28;20126;-68
2020/12/10 05:32:28;;;;;;;91.95;32.78;;;2.80;97.30;;;;;;5054902;28;20100;-67
2020/12/10 05:34:53;;;;;;;91.15;33.13;;;2.90;97.40;;;;;;5059941;28;20450;-67
2020/12/10 05:37:31;;;;;;;97.18;33.65;;;2.80;97.30;;;;;;5062904;28;20160;-67
2020/12/10 05:40:01;;;;;;;94.00;32.88;;;2.80;97.30;;;;;;5060816;28;20464;-67
2020/12/10 05:42:38;;;;;;;100.50;33.38;;;2.80;97.40;;;;;;5055320;28;20020;-67
2020/12/10 05:45:14;;;;;;;82.97;31.30;;;2.80;97.40;;;;;;5066093;28;20127;-67
2020/12/10 05:47:52;;;;;;;88.85;31.65;;;2.80;97.30;;;;;;5064168;28;20142;-67
2020/12/10 05:50:25;;;;;;;87.25;30.95;;;2.80;97.30;;;;;;5063689;28;20025;-66
2020/12/10 05:53:07;;;;;;;82.82;32.85;;;2.80;97.30;;;;;;5062678;28;20028;-67
2020/12/10 05:55:34;;;;;;;86.30;32.08;;;2.80;97.30;;;;;;5065693;28;20048;-67
2020/12/10 05:58:01;;;;;;;88.88;31.98;;;2.80;97.30;;;;;;5061943;28;20021;-68
2020/12/10 06:00:27;;;;;;;90.28;32.05;;;2.80;97.30;;;;;;5058807;28;20401;-67
2020/12/10 06:02:55;;;;;;;99.22;32.40;;;2.80;97.30;;;;;;5064134;28;20111;-66
2020/12/10 06:05:22;;;;;;;88.10;32.30;;;2.80;97.30;;;;;;5065629;28;20595;-67
2020/12/10 06:08:04;;;;;;;95.80;32.88;;;2.80;97.30;;;;;;5060047;28;20036;-67
2020/12/10 06:10:40;;;;;;;84.95;31.90;;;2.80;97.30;;;;;;5062114;28;20025;-67
2020/12/10 06:13:07;;;;;;;82.55;29.88;;;2.80;97.40;;;;;;5053035;28;20070;-67
2020/12/10 06:15:33;;;;;;;82.95;29.92;;;2.80;97.40;;;;;;5065261;28;20017;-67
2020/12/10 06:18:13;;;;;;;78.57;28.30;;;2.70;97.30;;;;;;5062638;28;20051;-68
2020/12/10 06:20:43;;;;;;;73.88;28.88;;;2.80;97.30;;;;;;5049308;28;20025;-67
2020/12/10 06:23:27;;;;;;;64.82;28.05;;;2.70;97.40;;;;;;5055177;28;20126;-67
2020/12/10 06:25:58;;;;;;;75.97;28.83;;;2.70;97.30;;;;;;5053580;28;20487;-67
2020/12/10 06:28:24;;;;;;;;;;;2.70;97.30;;;;;;5055502;28;20528;-68
2020/12/10 06:31:07;;;;;;;67.50;26.55;;;2.70;97.20;;;;;;5063320;28;21473;-68
2020/12/10 06:33:42;;;;;;;78.20;29.35;;;2.70;97.30;;;;;;5060462;28;20162;-68
2020/12/10 06:36:27;;;;;;;65.25;27.05;;;2.70;97.30;;;;;;5065647;28;20131;-67
2020/12/10 06:38:57;;;;;;;64.32;28.13;;;2.70;97.30;;;;;;5063928;28;20135;-68
2020/12/10 06:41:24;;;;;;;78.00;27.20;;;2.70;97.40;;;;;;5049914;28;20028;-67
2020/12/10 06:43:49;;;;;;;64.18;26.63;;;2.60;97.30;;;;;;5060989;28;20048;-68
2020/12/10 06:46:15;;;;;;;68.47;27.15;;;2.70;97.40;;;;;;5065434;28;20123;-68
2020/12/10 06:48:45;;;;;;;67.15;26.73;;;2.70;97.40;;;;;;5064421;28;20041;-68
2020/12/10 06:51:11;;;;;;;65.72;27.00;;;2.70;97.40;;;;;;5064405;28;20017;-68
2020/12/10 06:53:36;;;;;;;58.80;25.23;;;2.70;97.50;;;;;;5062979;28;20052;-68
2020/12/10 06:56:05;;;;;;;68.97;26.58;;;2.70;97.40;;;;;;5065405;28;20051;-68
2020/12/10 06:58:41;;;;;;;60.85;25.08;;;2.70;97.40;;;;;;5061988;28;20090;-68
2020/12/10 07:01:25;;;;;;;66.25;25.10;;;2.70;97.40;;;;;;5057484;28;20028;-67
2020/12/10 07:03:56;;;;;;;54.67;24.17;;;2.70;97.40;;;;;;5054234;28;20083;-68
2020/12/10 07:06:22;;;;;;;62.28;26.13;;;2.70;97.30;;;;;;5051640;28;20502;-69
2020/12/10 07:09:07;;;;;;;63.92;26.52;;;2.70;97.30;;;;;;5065950;28;20595;-68
2020/12/10 07:11:35;;;;;;;64.70;25.85;;;2.70;97.40;;;;;;5061127;28;20129;-67
2020/12/10 07:14:02;;;;;;;69.53;25.83;;;2.70;97.40;;;;;;5064615;28;20440;-68
2020/12/10 07:16:31;;;;;;;63.40;26.15;;;2.70;97.40;;;;;;5061784;28;20075;-68
2020/12/10 07:18:58;;;;;;;64.22;24.08;;;2.70;97.40;;;;;;5062025;28;20032;-68
2020/12/10 07:21:24;;;;;;;58.20;24.15;;;2.70;97.30;;;;;;5058141;28;20020;-67
2020/12/10 07:23:50;;;;;;;53.15;23.83;;;2.70;97.30;;;;;;5059548;28;20502;-67
2020/12/10 07:26:16;;;;;;;59.80;25.05;;;2.70;97.30;;;;;;5058770;28;20028;-67
2020/12/10 07:28:45;;;;;;;56.35;24.17;;;2.70;97.30;;;;;;5062580;28;20032;-68
2020/12/10 07:31:15;;;;;;;48.53;22.67;;;2.70;97.30;;;;;;5063166;28;20111;-67
2020/12/10 07:33:41;;;;;;;56.75;23.10;;;2.70;97.30;;;;;;5052088;28;20056;-68
2020/12/10 07:36:08;;;;;;;57.30;24.60;;;2.60;97.30;;;;;;5061587;28;20133;-68
2020/12/10 07:38:34;;;;;;;57.67;24.45;;;2.60;97.30;;;;;;5066095;28;20390;-68
2020/12/10 07:40:59;;;;;;;57.35;24.48;;;2.70;97.40;;;;;;5058361;28;20017;-68
2020/12/10 07:43:28;;;;;;;52.50;23.80;;;2.70;97.40;;;;;;5065288;28;20043;-67
2020/12/10 07:45:54;;;;;;;56.72;23.70;;;2.70;97.40;;;;;;5066234;28;20056;-67
2020/12/10 07:48:20;;;;;;;65.30;24.80;;;2.60;97.40;;;;;;5053142;28;20061;-67
2020/12/10 07:50:47;;;;;;;57.53;23.10;;;2.70;97.40;;;;;;5060660;28;20067;-68
2020/12/10 07:53:12;;;;;;;59.97;24.35;;;2.70;97.40;;;;;;5059702;28;20618;-68
2020/12/10 07:55:52;;;;;;;61.15;23.80;;;2.70;97.40;;;;;;5066099;28;20103;-68
2020/12/10 07:58:34;;;;;;;60.33;23.38;;;2.70;97.40;;;;;;5065882;28;20080;-68
2020/12/10 08:01:05;;;;;;;61.92;23.38;;;2.70;97.40;;;;;;5063785;28;20349;-68
2020/12/10 08:03:54;;;;;;;52.78;23.45;;;2.60;97.40;;;;;;5066863;28;20020;-68
2020/12/10 08:06:20;;;;;;;62.40;23.35;;;2.60;97.40;;;;;;5063178;28;20202;-68
2020/12/10 08:08:58;;;;;;;57.65;24.50;;;2.70;97.40;;;;;;5055489;28;20166;-68
2020/12/10 08:11:24;;;;;;;57.83;23.65;;;2.70;97.40;;;;;;5056069;28;20024;-67
2020/12/10 08:14:09;;;;;;;50.53;22.23;;;2.70;97.50;;;;;;5064412;28;20033;-68
2020/12/10 08:16:41;;;;;;;52.13;21.45;;;2.60;97.30;;;;;;5065911;28;20088;-68
2020/12/10 08:19:26;;;;;;;54.78;21.83;;;2.70;97.30;;;;;;5062564;28;20049;-69
2020/12/10 08:21:52;;;;;;;42.30;21.08;;;2.60;97.20;;;;;;5056270;28;20052;-68
2020/12/10 08:24:44;;;;;;;47.65;22.55;;;2.60;97.20;;;;;;5061415;28;20576;-67
2020/12/10 08:27:12;;;;;;;47.05;20.42;;;2.60;97.10;;;;;;5078378;28;20523;-68
2020/12/10 08:29:38;;;;;;;43.78;21.77;;;2.60;97.00;;;;;;5062538;28;20491;-68
2020/12/10 08:32:08;;;;;;;42.40;20.48;;;2.60;97.00;;;;;;5061846;28;20461;-68
2020/12/10 08:34:34;;;;;;;45.83;20.50;;;2.70;97.10;;;;;;5047350;28;20029;-68
2020/12/10 08:37:06;;;;;;;41.00;20.58;;;2.60;97.00;;;;;;5052914;28;20166;-68
2020/12/10 08:39:37;;;;;;;50.63;21.15;;;2.70;97.00;;;;;;5047216;28;20378;-68
2020/12/10 08:42:04;;;;;;;41.58;20.15;;;2.60;96.90;;;;;;5061102;28;20029;-68
2020/12/10 08:44:51;;;;;;;42.20;19.80;;;2.60;96.90;;;;;;5065188;28;20396;-68
2020/12/10 08:47:27;;;;;;;49.28;21.70;;;2.60;96.80;;;;;;5061836;28;20358;-68
2020/12/10 08:50:23;;;;;;;42.53;20.85;;;2.60;96.90;;;;;;5057655;28;20107;-69
2020/12/10 08:53:09;;;;;;;45.33;20.98;;;2.60;96.90;;;;;;5057985;28;20043;-68
2020/12/10 08:55:40;;;;;;;45.40;21.67;;;2.60;97.00;;;;;;5062474;28;20090;-68
2020/12/10 08:58:07;;;;;;;48.05;21.13;;;2.60;97.00;;;;;;5064076;28;20368;-69
2020/12/10 09:00:37;;;;;;;44.40;20.05;;;2.60;96.90;;;;;;5057930;28;20040;-68
2020/12/10 09:03:03;;;;;;;52.17;21.42;;;2.70;97.00;;;;;;5062955;28;20077;-68
2020/12/10 09:05:28;;;;;;;41.90;19.23;;;2.60;97.00;;;;;;5053507;28;20074;-68
2020/12/10 09:07:54;;;;;;;44.15;21.17;;;2.60;97.00;;;;;;5058062;28;20040;-68
2020/12/10 09:10:20;;;;;;;48.33;21.88;;;2.70;97.00;;;;;;5049747;28;20025;-68
2020/12/10 09:12:46;;;;;;;48.42;21.48;;;2.60;96.90;;;;;;5064299;28;20078;-68
2020/12/10 09:15:13;;;;;;;52.85;21.33;;;2.60;96.90;;;;;;5054637;28;20130;-67
2020/12/10 09:17:38;;;;;;;51.95;21.95;;;2.70;96.90;;;;;;5065970;28;20051;-67
2020/12/10 09:20:04;;;;;;;55.47;22.42;;;2.70;96.80;;;;;;5067336;28;20024;-67
2020/12/10 09:22:29;;;;;;;55.25;22.67;;;2.70;96.80;;;;;;5064070;28;20465;-69
2020/12/10 09:24:56;;;;;;;60.03;22.95;;;2.70;96.80;;;;;;5056230;28;20039;-66
2020/12/10 09:27:23;;;;;;;61.40;22.52;;;2.70;96.70;;;;;;5065080;28;20057;-67
2020/12/10 09:29:49;;;;;;;53.05;21.90;;;2.70;96.80;;;;;;5066292;28;20051;-67
2020/12/10 09:32:15;;;;;;;57.63;23.15;;;2.60;96.70;;;;;;5063921;28;20364;-67
2020/12/10 09:34:41;;;;;;;57.13;22.95;;;2.60;96.80;;;;;;5059041;28;20143;-68
2020/12/10 09:37:07;;;;;;;56.78;23.25;;;2.60;96.80;;;;;;5063349;28;20504;-66
2020/12/10 09:39:34;;;;;;;54.88;23.17;;;2.70;96.80;;;;;;5064524;28;20270;-68
2020/12/10 09:42:00;;;;;;;51.90;21.67;;;2.60;96.70;;;;;;5063897;28;20093;-67
2020/12/10 09:44:26;;;;;;;61.60;24.52;;;2.70;96.70;;;;;;5062351;28;20020;-67
2020/12/10 09:46:52;;;;;;;70.63;25.25;;;2.60;96.60;;;;;;5048985;28;20831;-67
2020/12/10 09:49:17;;;;;;;60.90;24.85;;;2.70;96.60;;;;;;5066676;28;20382;-67
2020/12/10 09:51:51;;;;;;;60.38;24.98;;;2.70;96.60;;;;;;5055207;28;20127;-67
2020/12/10 09:57:18;;;;;;;70.13;25.27;;;2.70;96.60;;;;;;5036338;28;20460;-67
2020/12/10 09:59:44;;;;;;;62.60;24.75;;;2.80;96.60;;;;;;5064677;28;20032;-67
2020/12/10 10:02:10;;;;;;;67.50;26.45;;;2.80;96.60;;;;;;5062717;28;20411;-67
2020/12/10 10:04:35;;;;;;;71.75;26.92;;;2.80;96.60;;;;;;5064073;28;20033;-67
2020/12/10 10:07:05;;;;;;;67.22;26.15;;;2.80;96.60;;;;;;5055678;28;20376;-67
2020/12/10 10:09:32;;;;;;;70.10;26.43;;;2.80;96.50;;;;;;5065819;28;20116;-68
2020/12/10 10:11:58;;;;;;;74.43;26.63;;;2.70;96.40;;;;;;5059321;28;20294;-68
2020/12/10 10:14:23;;;;;;;67.93;27.02;;;2.80;96.40;;;;;;5055238;28;20033;-67
2020/12/10 10:16:49;;;;;;;68.28;26.33;;;2.80;96.40;;;;;;5064018;28;20454;-69
2020/12/10 10:19:14;;;;;;;59.00;25.27;;;2.80;96.50;;;;;;5061251;28;20037;-68
2020/12/10 10:21:40;;;;;;;68.15;26.38;;;2.80;96.30;;;;;;5063164;28;20036;-68
2020/12/10 10:24:08;;;;;;;63.10;25.95;;;2.80;96.20;;;;;;5056238;28;20396;-68
2020/12/10 10:26:34;;;;;;;65.00;26.02;;;2.80;95.90;;;;;;5054823;28;20059;-68
2020/12/10 10:29:02;;;;;;;63.78;26.10;;;2.80;96.00;;;;;;5063040;28;20043;-68
2020/12/10 10:31:28;;;;;;;65.88;27.10;;;2.80;96.10;;;;;;5059153;28;20032;-67
2020/12/10 10:33:53;;;;;;;72.43;27.73;;;2.80;96.30;;;;;;5064493;28;20108;-68
2020/12/10 10:36:22;;;;;;;74.07;27.65;;;2.80;96.30;;;;;;5066099;28;20047;-68
2020/12/10 10:38:48;;;;;;;72.25;26.85;;;2.70;96.20;;;;;;5064037;28;20021;-68
2020/12/10 10:41:13;;;;;;;68.97;26.30;;;2.60;96.10;;;;;;5061393;28;20039;-68
2020/12/10 10:43:39;;;;;;;65.03;26.73;;;2.70;96.20;;;;;;5062171;28;20652;-68
2020/12/10 10:46:05;;;;;;;63.47;26.35;;;2.70;96.30;;;;;;5054543;28;20083;-68
2020/12/10 10:48:30;;;;;;;61.90;24.30;;;2.80;96.30;;;;;;5061364;28;20141;-68
2020/12/10 10:50:57;;;;;;;65.72;25.27;;;2.70;95.90;;;;;;5063333;28;20257;-67
2020/12/10 10:53:22;;;;;;;54.90;24.60;;;2.70;95.90;;;;;;5058492;28;20017;-67
2020/12/10 10:55:49;;;;;;;57.60;23.70;;;2.70;95.80;;;;;;5064234;28;20070;-68
2020/12/10 10:58:15;;;;;;;62.50;25.15;;;2.80;95.90;;;;;;5063124;28;20024;-68
2020/12/10 11:00:41;;;;;;;59.38;26.02;;;2.80;95.80;;;;;;5054065;28;20509;-69
2020/12/10 11:03:07;;;;;;;59.60;25.80;;;2.80;95.80;;;;;;5062627;28;20048;-67
2020/12/10 11:05:32;;;;;;;59.03;24.42;;;2.90;95.90;;;;;;5060598;28;20070;-69
2020/12/10 11:07:58;;;;;;;64.72;26.05;;;3.00;95.80;;;;;;5056280;28;20340;-68
2020/12/10 11:10:24;;;;;;;57.85;23.17;;;3.00;95.70;;;;;;5066199;28;20029;-69
2020/12/10 11:12:50;;;;;;;59.35;24.15;;;3.10;95.70;;;;;;5065740;28;20283;-75
2020/12/10 11:15:16;;;;;;;56.28;23.17;;;3.10;95.40;;;;;;5070354;28;20107;-74
2020/12/10 11:17:41;;;;;;;48.00;21.23;;;3.00;94.90;;;;;;5065774;28;20171;-75
2020/12/10 11:20:07;;;;;;;50.70;23.08;;;3.00;94.80;;;;;;5070528;28;20104;-74
2020/12/10 11:22:36;;;;;;;50.05;23.23;;;2.90;95.20;;;;;;5068162;28;20322;-73
2020/12/10 11:25:03;;;;;;;54.08;24.92;;;2.90;95.10;;;;;;5065350;28;20028;-74
2020/12/10 11:27:30;;;;;;;53.88;23.88;;;2.90;95.40;;;;;;5061184;28;20028;-73
2020/12/10 11:29:56;;;;;;;48.05;22.83;;;3.00;95.60;;;;;;5059656;28;20025;-68
2020/12/10 11:32:22;;;;;;;54.17;24.65;;;2.90;95.30;;;;;;5062479;28;20039;-69
2020/12/10 11:34:48;;;;;;;48.50;22.38;;;2.80;95.20;;;;;;5068814;28;20556;-69
2020/12/10 11:37:13;;;;;;;63.28;24.08;;;2.80;95.40;;;;;;5061301;28;20036;-69
2020/12/10 11:39:39;;;;;;;54.85;24.42;;;2.80;95.60;;;;;;5061811;28;20128;-69
2020/12/10 11:42:05;;;;;;;55.92;23.85;;;2.80;95.40;;;;;;5059066;28;20020;-68
2020/12/10 11:44:30;;;;;;;53.08;25.42;;;2.80;95.50;;;;;;5068387;28;20078;-69
2020/12/10 11:46:56;;;;;;;56.78;24.13;;;2.80;95.70;;;;;;5067951;28;20024;-69
2020/12/10 11:49:22;;;;;;;60.65;24.65;;;2.80;95.70;;;;;;5064991;28;20128;-67
2020/12/10 11:51:47;;;;;;;60.92;24.17;;;2.70;95.60;;;;;;5068624;28;20093;-69
2020/12/10 11:54:13;;;;;;;62.97;27.17;;;2.80;95.90;;;;;;5067536;28;20527;-69
2020/12/10 11:56:38;;;;;;;62.90;25.50;;;2.70;95.90;;;;;;5067456;28;20039;-69
2020/12/10 11:59:04;;;;;;;64.00;26.70;;;2.70;95.90;;;;;;5065433;28;20025;-69
2020/12/10 12:01:29;;;;;;;58.10;25.02;;;2.60;96.00;;;;;;5056259;28;20434;-68
2020/12/10 12:03:55;;;;;;;62.65;25.60;;;2.70;96.20;;;;;;5062613;28;20524;-69
2020/12/10 12:06:23;;;;;;;55.08;23.75;;;2.70;96.00;;;;;;5065407;28;20110;-68
2020/12/10 12:08:49;;;;;;;58.38;24.90;;;2.80;96.20;;;;;;5065517;28;20526;-69
2020/12/10 12:11:15;;;;;;;57.58;25.00;;;2.80;96.10;;;;;;5053864;28;20378;-69
2020/12/10 12:13:41;;;;;;;57.92;25.30;;;2.80;96.00;;;;;;5063785;28;20032;-69
2020/12/10 12:16:07;;;;;;;61.55;25.88;;;2.70;95.80;;;;;;5068458;28;20025;-69
2020/12/10 12:18:32;;;;;;;61.80;25.95;;;2.70;96.00;;;;;;5067719;28;20382;-69
2020/12/10 12:20:58;;;;;;;74.90;26.42;;;2.80;96.00;;;;;;5066033;28;20182;-69
2020/12/10 12:23:24;;;;;;;66.63;27.33;;;2.80;96.10;;;;;;5063987;28;20036;-69
2020/12/10 12:25:49;;;;;;;62.28;26.35;;;2.80;96.10;;;;;;5062530;28;20036;-69
2020/12/10 12:28:15;;;;;;;65.88;26.75;;;2.80;96.10;;;;;;5062196;28;20147;-67
2020/12/10 12:30:40;;;;;;;60.78;26.15;;;2.80;96.10;;;;;;5067474;28;20024;-69
2020/12/10 12:33:06;;;;;;;68.90;28.58;;;2.70;95.90;;;;;;5066418;28;20043;-69
2020/12/10 12:35:31;;;;;;;70.45;29.45;;;2.70;96.00;;;;;;5064729;28;20024;-69
2020/12/10 12:37:57;;;;;;;69.22;28.95;;;2.70;96.20;;;;;;5066161;28;20017;-69
2020/12/10 12:40:24;;;;;;;62.05;27.48;;;2.70;96.20;;;;;;5067028;28;20025;-69
2020/12/10 12:42:49;;;;;;;72.93;28.40;;;2.60;96.10;;;;;;5065405;28;20122;-68
2020/12/10 12:45:15;;;;;;;67.25;27.67;;;2.60;96.20;;;;;;5062287;28;20387;-68